createdAt,value
2018-07-19T00:02:15.016Z,6.20
2018-07-19T00:06:19.249Z,6.70
2018-07-19T00:10:23.533Z,6.40
2018-07-19T00:14:27.738Z,6.50
2018-07-19T00:18:31.938Z,6.23
2018-07-19T00:22:36.271Z,6.63
2018-07-19T00:26:40.465Z,6.77
2018-07-19T00:30:44.793Z,7.37
2018-07-19T00:34:49.019Z,6.63
2018-07-19T00:38:53.352Z,7.17
2018-07-19T00:42:57.656Z,7.67
2018-07-19T00:47:01.964Z,6.60
2018-07-19T00:51:06.379Z,7.77
2018-07-19T00:55:10.749Z,6.70
2018-07-19T00:59:15.265Z,7.13
2018-07-19T01:03:20.557Z,7.33
2018-07-19T01:07:24.784Z,7.30
2018-07-19T01:11:29.027Z,8.30
2018-07-19T01:15:34.372Z,7.83
2018-07-19T01:19:38.584Z,8.00
2018-07-19T01:23:42.799Z,8.47
2018-07-19T01:27:47.096Z,7.00
2018-07-19T01:31:51.328Z,6.50
2018-07-19T01:35:55.537Z,9.03
2018-07-19T01:39:59.867Z,7.93
2018-07-19T01:44:04.073Z,9.17
2018-07-19T01:48:08.288Z,8.00
2018-07-19T01:52:13.024Z,9.90
2018-07-19T01:56:17.249Z,9.27
2018-07-19T02:00:21.690Z,7.67
2018-07-19T02:04:25.917Z,10.37
2018-07-19T02:08:30.211Z,8.33
2018-07-19T02:12:34.452Z,8.20
2018-07-19T02:16:38.799Z,9.97
2018-07-19T02:20:43.036Z,7.70
2018-07-19T02:24:47.358Z,9.30
2018-07-19T02:28:51.728Z,10.23
2018-07-19T02:32:55.974Z,9.53
2018-07-19T02:37:00.192Z,9.07
2018-07-19T02:41:04.496Z,9.37
2018-07-19T02:45:08.734Z,8.33
2018-07-19T02:49:13.295Z,7.93
2018-07-19T02:53:17.596Z,9.10
2018-07-19T02:57:21.809Z,9.87
2018-07-19T03:01:26.130Z,9.10
2018-07-19T03:05:30.344Z,9.77
2018-07-19T03:09:34.560Z,12.00
2018-07-19T03:13:38.784Z,10.10
2018-07-19T03:17:43.167Z,9.93
2018-07-19T03:21:47.404Z,10.07
2018-07-19T03:25:51.642Z,9.63
2018-07-19T03:29:55.948Z,8.93
2018-07-19T03:34:00.196Z,10.50
2018-07-19T03:38:04.488Z,10.53
2018-07-19T03:42:08.881Z,9.03
2018-07-19T03:46:13.082Z,10.27
2018-07-19T03:50:17.401Z,11.20
2018-07-19T03:54:21.617Z,10.03
2018-07-19T03:58:25.972Z,11.40
2018-07-19T04:02:30.232Z,10.00
2018-07-19T04:06:34.423Z,9.83
2018-07-19T04:10:38.806Z,10.07
2018-07-19T04:14:43.087Z,10.67
2018-07-19T04:18:47.340Z,10.57
2018-07-19T04:22:51.824Z,11.33
2018-07-19T04:26:56.029Z,8.67
2018-07-19T04:31:00.357Z,9.63
2018-07-19T04:35:04.757Z,10.73
2018-07-19T04:39:09.893Z,10.20
2018-07-19T04:43:14.155Z,11.73
2018-07-19T04:47:18.397Z,10.17
2018-07-19T04:51:22.801Z,9.93
2018-07-19T04:55:27.133Z,10.37
2018-07-19T04:59:31.372Z,9.33
2018-07-19T05:03:36.765Z,8.57
2018-07-19T05:07:40.973Z,9.80
2018-07-19T05:11:45.219Z,9.83
2018-07-19T05:15:49.585Z,10.27
2018-07-19T05:19:53.840Z,9.00
2018-07-19T05:23:58.402Z,11.00
2018-07-19T05:28:02.760Z,9.50
2018-07-19T05:32:07.036Z,9.87
2018-07-19T05:36:11.460Z,11.27
2018-07-19T05:40:15.766Z,10.03
2018-07-19T05:44:20.091Z,11.10
2018-07-19T05:48:24.396Z,10.50
2018-07-19T05:52:28.612Z,10.37
2018-07-19T05:56:32.831Z,9.13
2018-07-19T06:00:37.153Z,8.80
2018-07-19T06:04:41.362Z,10.13
2018-07-19T06:08:45.864Z,10.27
2018-07-19T06:12:50.204Z,9.57
2018-07-19T06:16:54.432Z,8.30
2018-07-19T06:20:58.790Z,10.23
2018-07-19T06:25:03.195Z,7.80
2018-07-19T06:29:07.437Z,8.27
2018-07-19T06:33:16.491Z,6.30
2018-07-19T06:37:26.038Z,6.77
2018-07-19T06:41:31.650Z,7.40
2018-07-19T06:45:37.067Z,7.03
2018-07-19T06:49:46.701Z,6.03
2018-07-19T06:53:52.382Z,4.93
2018-07-19T06:57:59.781Z,6.20
2018-07-19T07:02:10.698Z,5.50
2018-07-19T07:06:18.579Z,6.00
2018-07-19T07:10:23.397Z,6.43
2018-07-19T07:14:27.869Z,5.10
2018-07-19T07:18:32.192Z,5.00
2018-07-19T07:22:36.578Z,5.63
2018-07-19T07:26:40.797Z,4.63
2018-07-19T07:30:45.166Z,5.00
2018-07-19T07:34:58.372Z,4.67
2018-07-19T07:39:02.684Z,4.27
2018-07-19T07:43:07.624Z,4.50
2018-07-19T07:47:12.047Z,5.37
2018-07-19T07:51:16.292Z,5.17
2018-07-19T07:55:20.746Z,4.70
2018-07-19T07:59:25.139Z,5.10
2018-07-19T08:03:33.904Z,4.57
2018-07-19T08:07:42.281Z,6.53
2018-07-19T08:11:51.439Z,4.70
2018-07-19T08:15:57.083Z,4.60
2018-07-19T08:20:01.472Z,4.53
2018-07-19T08:24:08.691Z,5.07
2018-07-19T08:28:32.489Z,4.30
2018-07-19T08:32:41.115Z,4.23
2018-07-19T08:36:49.832Z,3.77
2018-07-19T08:40:54.525Z,3.63
2018-07-19T08:44:58.781Z,4.30
2018-07-19T08:49:03.139Z,3.97
2018-07-19T08:53:07.463Z,4.50
2018-07-19T08:57:12.940Z,4.43
2018-07-19T09:01:17.406Z,4.97
2018-07-19T09:05:21.736Z,3.93
2018-07-19T09:09:25.967Z,3.55
2018-07-19T09:13:30.346Z,3.50
2018-07-19T09:17:34.645Z,3.87
2018-07-19T09:21:38.866Z,3.20
2018-07-19T09:25:43.061Z,3.93
2018-07-19T09:29:47.445Z,4.57
2018-07-19T09:33:51.708Z,3.53
2018-07-19T09:37:56.271Z,3.00
2018-07-19T09:42:00.521Z,3.77
2018-07-19T09:46:04.734Z,2.77
2018-07-19T09:50:08.957Z,3.80
2018-07-19T09:54:23.007Z,3.20
2018-07-19T09:58:27.189Z,3.23
2018-07-19T10:02:31.503Z,5.13
2018-07-19T10:06:35.762Z,2.93
2018-07-19T10:10:39.973Z,2.97
2018-07-19T10:14:44.232Z,2.90
2018-07-19T10:18:48.424Z,2.70
2018-07-19T10:22:52.732Z,3.93
2018-07-19T10:26:57.005Z,3.50
2018-07-19T10:31:01.224Z,2.80
2018-07-19T10:35:05.490Z,3.33
2018-07-19T10:39:10.620Z,2.50
2018-07-19T10:43:29.371Z,3.47
2018-07-19T10:47:33.596Z,2.50
2018-07-19T10:51:38.278Z,3.77
2018-07-19T10:55:42.482Z,3.10
2018-07-19T10:59:47.005Z,4.60
2018-07-19T11:03:51.200Z,3.70
2018-07-19T11:07:55.378Z,2.80
2018-07-19T11:12:00.602Z,3.33
2018-07-19T11:16:04.802Z,2.87
2018-07-19T11:20:08.962Z,9.30
2018-07-19T11:24:14.338Z,2.93
2018-07-19T11:28:18.528Z,2.57
2018-07-19T11:32:22.777Z,3.70
2018-07-19T11:36:26.972Z,2.50
2018-07-19T11:40:31.788Z,3.83
2018-07-19T11:44:36.030Z,3.23
2018-07-19T11:48:40.202Z,2.77
2018-07-19T11:52:44.417Z,2.73
2018-07-19T11:56:48.698Z,4.10
2018-07-19T12:00:52.995Z,5.37
2018-07-19T12:04:57.221Z,2.70
2018-07-19T12:09:01.501Z,3.20
2018-07-19T12:13:05.676Z,3.13
2018-07-19T12:17:10.001Z,3.90
2018-07-19T12:21:14.200Z,2.60
2018-07-19T12:25:18.393Z,2.87
2018-07-19T12:29:22.663Z,2.67
2018-07-19T12:33:26.923Z,5.10
2018-07-19T12:37:31.133Z,2.57
2018-07-19T12:41:35.242Z,2.93
2018-07-19T12:45:39.889Z,2.97
2018-07-19T12:49:44.067Z,2.47
2018-07-19T12:53:48.306Z,3.23
2018-07-19T12:57:52.445Z,2.50
2018-07-19T13:01:56.628Z,2.77
2018-07-19T13:06:00.887Z,2.40
2018-07-19T13:10:07.068Z,2.13
2018-07-19T13:14:12.041Z,3.37
2018-07-19T13:18:16.562Z,2.73
2018-07-19T13:22:20.803Z,3.10
2018-07-19T13:26:25.341Z,2.30
2018-07-19T13:30:29.519Z,3.40
2018-07-19T13:34:33.893Z,3.03
2018-07-19T13:38:38.087Z,2.70
2018-07-19T13:42:42.275Z,3.30
2018-07-19T13:46:46.570Z,3.10
2018-07-19T13:50:50.873Z,3.80
2018-07-19T13:54:55.010Z,2.97
2018-07-19T13:58:59.285Z,2.60
2018-07-19T14:03:03.436Z,2.83
2018-07-19T14:07:07.694Z,2.73
2018-07-19T14:11:11.824Z,2.70
2018-07-19T14:15:15.961Z,2.90
2018-07-19T14:19:24.414Z,2.50
2018-07-19T14:23:28.522Z,3.20
2018-07-19T14:27:32.610Z,2.40
2018-07-19T14:31:36.855Z,3.50
2018-07-19T14:35:41.107Z,2.63
2018-07-19T14:39:45.376Z,2.40
2018-07-19T14:43:49.537Z,3.03
2018-07-19T14:47:54.073Z,3.47
2018-07-19T14:51:58.396Z,2.60
2018-07-19T14:56:02.521Z,3.77
2018-07-19T15:00:07.359Z,2.73
2018-07-19T15:04:11.542Z,2.73
2018-07-19T15:08:15.701Z,4.13
2018-07-19T15:12:19.891Z,2.67
2018-07-19T15:16:24.311Z,2.90
2018-07-19T15:20:28.477Z,2.80
2018-07-19T15:24:32.724Z,3.60
2018-07-19T15:28:36.856Z,2.60
2018-07-19T15:32:41.016Z,2.50
2018-07-19T15:36:45.375Z,2.43
2018-07-19T15:40:49.572Z,2.97
2018-07-19T15:44:53.774Z,2.77
2018-07-19T15:48:58.095Z,3.10
2018-07-19T15:53:02.236Z,3.07
2018-07-19T15:57:06.500Z,2.67
2018-07-19T16:01:10.809Z,3.12
2018-07-19T16:05:15.024Z,3.00
2018-07-19T16:09:19.400Z,2.80
2018-07-19T16:13:23.687Z,2.60
2018-07-19T16:17:27.879Z,3.03
2018-07-19T16:21:32.052Z,2.60
2018-07-19T16:25:36.509Z,2.80
2018-07-19T16:29:40.661Z,2.90
2018-07-19T16:33:44.992Z,6.20
2018-07-19T16:37:49.424Z,4.07
2018-07-19T16:41:53.572Z,2.93
2018-07-19T16:45:58.007Z,3.20
2018-07-19T16:50:02.235Z,2.87
2018-07-19T16:54:06.817Z,2.83
2018-07-19T16:58:11.375Z,3.27
2018-07-19T17:02:15.552Z,3.13
2018-07-19T17:06:20.098Z,2.90
2018-07-19T17:10:24.810Z,2.50
2018-07-19T17:14:29.041Z,3.80
2018-07-19T17:18:36.265Z,6.72
2018-07-19T17:22:40.780Z,3.53
2018-07-19T17:26:45.264Z,3.13
2018-07-19T17:30:49.847Z,3.30
2018-07-19T17:34:54.307Z,4.03
2018-07-19T17:38:58.972Z,4.10
2018-07-19T17:43:03.552Z,3.60
2018-07-19T17:47:07.894Z,3.03
2018-07-19T17:51:15.583Z,4.60
2018-07-19T17:55:20.863Z,3.70
2018-07-19T17:59:29.752Z,4.40
2018-07-19T18:03:34.592Z,3.63
2018-07-19T18:07:39.031Z,3.20
2018-07-19T18:11:43.592Z,3.90
2018-07-19T18:15:48.452Z,5.33
2018-07-19T18:19:53.569Z,3.73
2018-07-19T18:23:58.110Z,4.10
2018-07-19T18:28:03.187Z,3.33
2018-07-19T18:32:07.665Z,4.23
2018-07-19T18:36:12.357Z,3.30
2018-07-19T18:40:16.891Z,3.93
2018-07-19T18:44:25.472Z,4.03
2018-07-19T18:48:30.548Z,4.13
2018-07-19T18:52:35.368Z,4.67
2018-07-19T18:56:39.961Z,3.33
2018-07-19T19:00:44.946Z,4.00
2018-07-19T19:04:49.824Z,4.70
2018-07-19T19:08:54.572Z,3.60
2018-07-19T19:12:59.293Z,4.40
2018-07-19T19:17:04.050Z,3.87
2018-07-19T19:21:08.833Z,4.00
2018-07-19T19:25:13.334Z,4.60
2018-07-19T19:29:17.818Z,4.50
2018-07-19T19:33:23.195Z,4.73
2018-07-19T19:37:27.628Z,5.10
2018-07-19T19:41:32.311Z,4.60
2018-07-19T19:45:36.798Z,4.90
2018-07-19T19:49:41.299Z,4.47
2018-07-19T19:53:46.049Z,4.47
2018-07-19T19:57:50.446Z,4.47
2018-07-19T20:01:54.889Z,3.67
2018-07-19T20:05:59.486Z,4.40
2018-07-19T20:10:04.077Z,4.70
2018-07-19T20:14:08.778Z,4.33
2018-07-19T20:18:13.125Z,3.40
2018-07-19T20:22:18.162Z,4.00
2018-07-19T20:26:22.571Z,5.13
2018-07-19T20:30:27.053Z,5.77
2018-07-19T20:34:31.447Z,4.03
2018-07-19T20:38:36.722Z,4.33
2018-07-19T20:42:41.085Z,4.67
2018-07-19T20:46:45.354Z,4.70
2018-07-19T20:50:49.789Z,4.87
2018-07-19T20:54:54.092Z,4.00
2018-07-19T20:58:58.357Z,4.23
2018-07-19T21:03:02.845Z,4.30
2018-07-19T21:07:07.235Z,4.17
2018-07-19T21:11:11.594Z,4.50
2018-07-19T21:15:15.837Z,4.03
2018-07-19T21:19:20.090Z,5.00
2018-07-19T21:23:24.311Z,6.03
2018-07-19T21:27:28.715Z,4.23
2018-07-19T21:31:32.985Z,4.53
2018-07-19T21:35:37.255Z,4.90
2018-07-19T21:39:41.566Z,6.00
2018-07-19T21:43:45.874Z,6.60
2018-07-19T21:47:50.321Z,7.97
2018-07-19T21:51:54.826Z,4.60
2018-07-19T21:55:59.169Z,6.03
2018-07-19T22:00:03.431Z,5.60
2018-07-19T22:04:07.607Z,4.63
2018-07-19T22:08:11.844Z,5.03
2018-07-19T22:12:16.124Z,4.60
2018-07-19T22:16:20.351Z,4.60
2018-07-19T22:20:24.702Z,6.13
2018-07-19T22:24:29.316Z,6.57
2018-07-19T22:28:33.555Z,5.03
2018-07-19T22:32:37.848Z,5.30
2018-07-19T22:36:42.181Z,5.13
2018-07-19T22:40:46.498Z,5.83
2018-07-19T22:44:50.829Z,5.50
2018-07-19T22:48:56.296Z,5.97
2018-07-19T22:53:00.507Z,5.20
2018-07-19T22:57:04.865Z,4.83
2018-07-19T23:01:09.542Z,5.10
2018-07-19T23:05:13.972Z,4.40
2018-07-19T23:09:18.200Z,5.47
2018-07-19T23:13:22.388Z,6.60
2018-07-19T23:17:26.800Z,7.07
2018-07-19T23:21:31.215Z,4.87
2018-07-19T23:25:35.439Z,5.93
2018-07-19T23:29:39.964Z,5.70
2018-07-19T23:33:44.243Z,5.20
2018-07-19T23:37:50.443Z,15.10
2018-07-19T23:41:58.879Z,5.60
2018-07-19T23:46:08.372Z,5.70
2018-07-19T23:50:12.636Z,5.30
2018-07-19T23:54:16.995Z,6.10
2018-07-19T23:58:21.200Z,5.90
